createdAt,value
2023-05-05T00:00:55.082Z,9.21
2023-05-05T00:03:41.632Z,9.85
2023-05-05T00:06:28.474Z,8.64
2023-05-05T00:09:14.088Z,8.78
2023-05-05T00:11:59.616Z,8.84
2023-05-05T00:14:44.866Z,9.48
2023-05-05T00:17:30.054Z,8.99
2023-05-05T00:20:15.348Z,8.90
2023-05-05T00:23:01.187Z,8.42
2023-05-05T00:25:47.037Z,9.16
2023-05-05T00:28:32.629Z,9.03
2023-05-05T00:31:18.208Z,9.00
2023-05-05T00:34:03.596Z,8.67
2023-05-05T00:36:49.588Z,7.68
2023-05-05T00:39:35.462Z,8.02
2023-05-05T00:42:21.037Z,7.62
2023-05-05T00:45:06.808Z,7.62
2023-05-05T00:47:56.968Z,8.90
2023-05-05T00:50:44.046Z,9.12
2023-05-05T00:53:29.825Z,8.02
2023-05-05T00:56:20.863Z,9.19
2023-05-05T00:59:06.348Z,7.94
2023-05-05T01:01:51.875Z,7.85
2023-05-05T01:04:37.151Z,8.69
2023-05-05T01:07:41.324Z,8.81
2023-05-05T01:10:38.268Z,8.67
2023-05-05T01:13:44.369Z,7.26
2023-05-05T01:16:33.974Z,7.29
2023-05-05T01:19:28.851Z,8.33
2023-05-05T01:22:16.987Z,8.24
2023-05-05T01:25:27.130Z,8.14
2023-05-05T01:28:37.237Z,7.59
2023-05-05T01:31:52.047Z,8.07
2023-05-05T01:34:45.177Z,6.78
2023-05-05T01:37:42.323Z,7.88
2023-05-05T01:40:31.904Z,8.10
2023-05-05T01:43:20.247Z,8.18
2023-05-05T01:46:07.578Z,6.67
2023-05-05T01:48:56.723Z,7.90
2023-05-05T01:51:44.148Z,7.45
2023-05-05T01:54:32.098Z,7.33
2023-05-05T01:57:21.133Z,8.57
2023-05-05T02:00:09.781Z,7.28
2023-05-05T02:03:04.467Z,8.42
2023-05-05T02:05:53.119Z,7.17
2023-05-05T02:08:39.696Z,8.12
2023-05-05T02:11:27.648Z,7.06
2023-05-05T02:14:16.809Z,8.02
2023-05-05T02:17:03.580Z,7.43
2023-05-05T02:19:52.405Z,6.89
2023-05-05T02:22:37.984Z,7.87
2023-05-05T02:25:28.992Z,7.87
2023-05-05T02:28:22.568Z,6.53
2023-05-05T02:31:10.816Z,6.72
2023-05-05T02:33:57.997Z,7.72
2023-05-05T02:36:46.463Z,7.37
2023-05-05T02:39:45.798Z,7.62
2023-05-05T02:42:36.820Z,7.63
2023-05-05T02:45:26.881Z,6.60
2023-05-05T02:48:13.081Z,7.47
2023-05-05T02:50:58.684Z,6.31
2023-05-05T02:53:52.603Z,6.41
2023-05-05T02:56:47.268Z,7.63
2023-05-05T02:59:48.724Z,7.75
2023-05-05T03:03:16.642Z,7.98
2023-05-05T03:06:16.585Z,7.72
2023-05-05T03:09:25.837Z,7.88
2023-05-05T03:12:20.444Z,6.97
2023-05-05T03:15:19.854Z,8.24
2023-05-05T03:18:06.642Z,7.40
2023-05-05T03:20:53.979Z,8.03
2023-05-05T03:23:39.871Z,7.80
2023-05-05T03:26:31.949Z,7.00
2023-05-05T03:29:17.767Z,7.90
2023-05-05T03:32:03.289Z,7.06
2023-05-05T03:34:48.725Z,6.75
2023-05-05T03:37:34.059Z,6.86
2023-05-05T03:40:20.184Z,8.09
2023-05-05T03:43:06.616Z,8.07
2023-05-05T03:45:52.058Z,7.33
2023-05-05T03:48:38.601Z,8.10
2023-05-05T03:51:24.817Z,7.32
2023-05-05T03:54:10.554Z,7.89
2023-05-05T03:56:56.365Z,7.46
2023-05-05T03:59:41.640Z,8.21
2023-05-05T04:02:28.022Z,8.00
2023-05-05T04:05:13.793Z,8.14
2023-05-05T04:07:59.074Z,8.22
2023-05-05T04:10:45.142Z,8.29
2023-05-05T04:13:31.105Z,7.07
2023-05-05T04:16:16.803Z,8.30
2023-05-05T04:19:02.607Z,8.27
2023-05-05T04:21:50.499Z,8.20
2023-05-05T04:24:36.462Z,7.12
2023-05-05T04:27:22.060Z,8.18
2023-05-05T04:30:09.416Z,8.14
2023-05-05T04:32:57.342Z,8.14
2023-05-05T04:35:43.114Z,7.41
2023-05-05T04:38:29.232Z,8.00
2023-05-05T04:41:14.967Z,8.14
2023-05-05T04:44:02.006Z,7.86
2023-05-05T04:46:47.947Z,8.51
2023-05-05T04:49:34.227Z,7.84
2023-05-05T04:52:19.736Z,7.64
2023-05-05T04:55:05.876Z,8.16
2023-05-05T04:57:51.983Z,9.03
2023-05-05T05:00:37.954Z,9.15
2023-05-05T05:03:23.619Z,9.03
2023-05-05T05:06:09.446Z,8.03
2023-05-05T05:08:55.252Z,9.33
2023-05-05T05:11:40.820Z,8.25
2023-05-05T05:14:28.181Z,8.28
2023-05-05T05:17:14.476Z,9.04
2023-05-05T05:20:04.641Z,8.69
2023-05-05T05:22:51.774Z,9.79
2023-05-05T05:25:51.220Z,9.23
2023-05-05T05:28:38.825Z,10.34
2023-05-05T05:31:24.236Z,11.41
2023-05-05T05:34:11.297Z,10.62
2023-05-05T05:36:58.942Z,11.19
2023-05-05T05:39:51.054Z,11.32
2023-05-05T05:42:37.385Z,11.83
2023-05-05T05:45:23.684Z,12.62
2023-05-05T05:48:09.012Z,13.07
2023-05-05T05:50:55.141Z,13.54
2023-05-05T05:53:40.843Z,12.67
2023-05-05T05:56:27.607Z,13.97
2023-05-05T05:59:24.912Z,13.88
2023-05-05T06:02:11.051Z,13.42
2023-05-05T06:04:56.430Z,13.28
2023-05-05T06:07:41.766Z,14.46
2023-05-05T06:10:28.741Z,14.55
2023-05-05T06:13:25.290Z,14.48
2023-05-05T06:16:11.675Z,14.88
2023-05-05T06:18:59.083Z,14.49
2023-05-05T06:21:44.418Z,14.24
2023-05-05T06:24:32.074Z,14.77
2023-05-05T06:27:19.533Z,15.14
2023-05-05T06:30:06.803Z,15.46
2023-05-05T06:32:54.303Z,15.42
2023-05-05T06:35:39.816Z,15.39
2023-05-05T06:38:25.258Z,15.19
2023-05-05T06:41:10.795Z,15.48
2023-05-05T06:43:56.590Z,15.46
2023-05-05T06:46:43.626Z,15.08
2023-05-05T06:49:29.956Z,16.07
2023-05-05T06:52:15.188Z,15.76
2023-05-05T06:55:01.565Z,16.01
2023-05-05T06:57:46.924Z,15.78
2023-05-05T07:00:32.760Z,15.72
2023-05-05T07:03:18.326Z,15.42
2023-05-05T07:06:04.408Z,15.11
2023-05-05T07:08:50.535Z,16.12
2023-05-05T07:11:39.238Z,16.09
2023-05-05T07:14:24.647Z,14.95
2023-05-05T07:17:11.342Z,16.22
2023-05-05T07:19:57.264Z,16.18
2023-05-05T07:22:42.715Z,16.06
2023-05-05T07:25:28.154Z,16.43
2023-05-05T07:28:13.849Z,15.65
2023-05-05T07:30:59.288Z,15.61
2023-05-05T07:33:45.930Z,16.47
2023-05-05T07:36:32.277Z,15.65
2023-05-05T07:39:19.544Z,15.65
2023-05-05T07:42:06.688Z,16.55
2023-05-05T07:44:52.870Z,16.61
2023-05-05T07:47:38.748Z,16.69
2023-05-05T07:50:24.990Z,16.79
2023-05-05T07:53:14.944Z,16.68
2023-05-05T07:56:00.829Z,16.87
2023-05-05T07:58:46.772Z,16.00
2023-05-05T08:01:32.037Z,15.85
2023-05-05T08:04:17.473Z,15.88
2023-05-05T08:07:02.803Z,16.58
2023-05-05T08:09:48.456Z,16.13
2023-05-05T08:12:34.115Z,16.07
2023-05-05T08:15:20.069Z,16.23
2023-05-05T08:18:05.793Z,15.75
2023-05-05T08:20:51.936Z,16.60
2023-05-05T08:23:39.275Z,16.00
2023-05-05T08:26:25.128Z,16.63
2023-05-05T08:29:10.687Z,17.16
2023-05-05T08:31:56.217Z,17.02
2023-05-05T08:34:41.904Z,17.41
2023-05-05T08:37:27.154Z,17.53
2023-05-05T08:40:16.390Z,16.54
2023-05-05T08:43:02.229Z,17.62
2023-05-05T08:45:48.956Z,16.57
2023-05-05T08:48:36.562Z,17.44
2023-05-05T08:51:25.194Z,17.68
2023-05-05T08:54:17.786Z,17.02
2023-05-05T08:57:06.864Z,17.86
2023-05-05T08:59:53.484Z,17.06
2023-05-05T09:02:40.582Z,17.81
2023-05-05T09:05:42.083Z,17.61
2023-05-05T09:08:28.410Z,17.86
2023-05-05T09:11:13.602Z,17.86
2023-05-05T09:13:59.007Z,16.79
2023-05-05T09:16:44.318Z,16.90
2023-05-05T09:19:29.945Z,17.83
2023-05-05T09:22:15.199Z,17.70
2023-05-05T09:25:00.958Z,17.92
2023-05-05T09:27:48.559Z,17.77
2023-05-05T09:30:36.079Z,18.11
2023-05-05T09:33:31.345Z,18.25
2023-05-05T09:36:16.705Z,18.16
2023-05-05T09:39:06.239Z,17.53
2023-05-05T09:41:51.561Z,18.57
2023-05-05T09:44:40.086Z,18.33
2023-05-05T09:47:36.704Z,17.40
2023-05-05T09:50:22.264Z,18.25
2023-05-05T09:53:09.576Z,18.10
2023-05-05T09:55:55.786Z,17.99
2023-05-05T09:58:42.241Z,17.32
2023-05-05T10:01:27.925Z,17.77
2023-05-05T10:04:33.510Z,17.76
2023-05-05T10:07:24.347Z,16.88
2023-05-05T10:10:17.492Z,17.80
2023-05-05T10:13:03.609Z,17.87
2023-05-05T10:15:51.512Z,17.95
2023-05-05T10:18:41.616Z,17.67
2023-05-05T10:21:33.437Z,18.22
2023-05-05T10:24:39.494Z,18.22
2023-05-05T10:27:28.466Z,18.10
2023-05-05T10:30:26.986Z,18.64
2023-05-05T10:33:31.488Z,18.42
2023-05-05T10:36:20.304Z,18.74
2023-05-05T10:39:09.605Z,18.85
2023-05-05T10:41:55.199Z,18.08
2023-05-05T10:44:41.321Z,18.77
2023-05-05T10:47:28.597Z,18.62
2023-05-05T10:50:36.273Z,18.84
2023-05-05T10:53:36.926Z,18.83
2023-05-05T10:56:28.085Z,18.29
2023-05-05T10:59:39.457Z,18.78
2023-05-05T11:02:29.635Z,17.90
2023-05-05T11:05:25.952Z,18.08
2023-05-05T11:08:34.487Z,18.67
2023-05-05T11:11:58.151Z,18.75
2023-05-05T11:14:43.734Z,18.73
2023-05-05T11:17:50.111Z,18.68
2023-05-05T11:20:39.873Z,18.15
2023-05-05T11:23:29.503Z,19.08
2023-05-05T11:26:16.356Z,19.22
2023-05-05T11:29:04.313Z,18.15
2023-05-05T11:32:12.825Z,19.36
2023-05-05T11:34:58.348Z,19.35
2023-05-05T11:37:43.752Z,19.15
2023-05-05T11:40:36.151Z,18.99
2023-05-05T11:43:21.667Z,19.36
2023-05-05T11:46:14.473Z,18.43
2023-05-05T11:49:00.571Z,19.07
2023-05-05T11:51:59.136Z,18.92
2023-05-05T11:54:50.069Z,19.04
2023-05-05T11:57:35.755Z,18.15
2023-05-05T12:00:32.094Z,18.18
2023-05-05T12:03:17.815Z,18.01
2023-05-05T12:06:05.180Z,18.28
2023-05-05T12:08:50.664Z,18.11
2023-05-05T12:11:48.567Z,17.83
2023-05-05T12:14:34.402Z,18.70
2023-05-05T12:17:22.853Z,18.79
2023-05-05T12:20:11.265Z,18.92
2023-05-05T12:23:02.100Z,18.92
2023-05-05T12:25:47.737Z,18.77
2023-05-05T12:28:46.684Z,18.94
2023-05-05T12:31:42.688Z,18.97
2023-05-05T12:34:29.183Z,18.74
2023-05-05T12:37:26.480Z,18.65
2023-05-05T12:40:44.825Z,19.24
2023-05-05T12:43:32.916Z,18.15
2023-05-05T12:46:19.106Z,19.33
2023-05-05T12:49:06.923Z,19.42
2023-05-05T12:51:54.865Z,19.35
2023-05-05T12:55:07.015Z,19.54
2023-05-05T12:58:01.629Z,19.08
2023-05-05T13:01:07.080Z,19.33
2023-05-05T13:04:10.986Z,18.43
2023-05-05T13:07:10.649Z,18.10
2023-05-05T13:10:09.046Z,19.25
2023-05-05T13:12:58.128Z,19.25
2023-05-05T13:15:43.833Z,18.67
2023-05-05T13:18:29.442Z,19.24
2023-05-05T13:21:15.116Z,18.91
2023-05-05T13:24:18.282Z,18.04
2023-05-05T13:27:06.411Z,18.96
2023-05-05T13:29:51.525Z,19.10
2023-05-05T13:32:37.254Z,18.86
2023-05-05T13:35:33.124Z,19.26
2023-05-05T13:38:19.705Z,18.73
2023-05-05T13:41:05.124Z,18.11
2023-05-05T13:43:51.313Z,18.26
2023-05-05T13:46:37.113Z,19.10
2023-05-05T13:49:22.460Z,18.91
2023-05-05T13:52:08.061Z,18.19
2023-05-05T13:54:53.379Z,19.27
2023-05-05T13:57:38.780Z,19.25
2023-05-05T14:00:24.154Z,18.67
2023-05-05T14:03:09.745Z,18.94
2023-05-05T14:05:55.060Z,19.02
2023-05-05T14:08:40.459Z,18.01
2023-05-05T14:11:26.268Z,19.13
2023-05-05T14:14:11.822Z,18.99
2023-05-05T14:16:57.620Z,18.95
2023-05-05T14:19:44.495Z,18.99
2023-05-05T14:22:29.986Z,19.02
2023-05-05T14:25:15.409Z,18.74
2023-05-05T14:28:00.930Z,19.02
2023-05-05T14:30:46.468Z,17.94
2023-05-05T14:33:32.180Z,17.97
2023-05-05T14:36:17.631Z,18.76
2023-05-05T14:39:06.899Z,18.96
2023-05-05T14:41:53.200Z,18.94
2023-05-05T14:44:38.456Z,17.88
2023-05-05T14:47:25.721Z,18.97
2023-05-05T14:50:11.713Z,18.97
2023-05-05T14:52:57.275Z,17.76
2023-05-05T14:55:42.798Z,17.77
2023-05-05T14:58:28.284Z,18.85
2023-05-05T15:01:13.776Z,18.82
2023-05-05T15:04:00.622Z,18.81
2023-05-05T15:06:46.181Z,18.58
2023-05-05T15:09:31.712Z,18.72
2023-05-05T15:12:17.101Z,18.75
2023-05-05T15:15:05.378Z,18.07
2023-05-05T15:17:51.016Z,18.45
2023-05-05T15:20:37.094Z,18.62
2023-05-05T15:23:22.293Z,18.74
2023-05-05T15:26:07.893Z,18.71
2023-05-05T15:28:53.102Z,18.72
2023-05-05T15:31:39.038Z,18.47
2023-05-05T15:34:24.892Z,18.24
2023-05-05T15:37:12.728Z,18.69
2023-05-05T15:39:58.064Z,18.30
2023-05-05T15:42:43.432Z,18.61
2023-05-05T15:45:28.764Z,17.49
2023-05-05T15:48:14.179Z,18.15
2023-05-05T15:50:59.765Z,17.37
2023-05-05T15:53:45.622Z,18.50
2023-05-05T15:56:30.829Z,17.38
2023-05-05T15:59:16.197Z,18.38
2023-05-05T16:02:01.856Z,18.36
2023-05-05T16:04:47.184Z,17.29
2023-05-05T16:07:35.243Z,18.02
2023-05-05T16:10:47.471Z,17.98
2023-05-05T16:13:33.205Z,17.76
2023-05-05T16:16:18.854Z,17.89
2023-05-05T16:19:04.469Z,18.13
2023-05-05T16:21:49.874Z,17.53
2023-05-05T16:24:35.428Z,18.05
2023-05-05T16:27:21.152Z,17.72
2023-05-05T16:30:07.269Z,17.68
2023-05-05T16:32:54.376Z,17.93
2023-05-05T16:35:39.856Z,17.86
2023-05-05T16:38:25.531Z,17.78
2023-05-05T16:41:11.306Z,17.41
2023-05-05T16:43:57.256Z,16.69
2023-05-05T16:46:43.057Z,17.77
2023-05-05T16:49:28.720Z,16.80
2023-05-05T16:52:14.144Z,16.52
2023-05-05T16:54:59.539Z,17.67
2023-05-05T16:57:44.888Z,17.61
2023-05-05T17:00:30.366Z,16.78
2023-05-05T17:03:20.702Z,17.34
2023-05-05T17:06:07.156Z,17.50
2023-05-05T17:08:52.809Z,17.36
2023-05-05T17:11:38.378Z,16.38
2023-05-05T17:14:24.489Z,16.18
2023-05-05T17:17:10.144Z,17.29
2023-05-05T17:19:56.062Z,17.01
2023-05-05T17:22:41.651Z,17.13
2023-05-05T17:25:28.379Z,17.02
2023-05-05T17:28:14.804Z,15.81
2023-05-05T17:31:01.552Z,16.64
2023-05-05T17:33:46.926Z,15.80
2023-05-05T17:36:32.773Z,15.90
2023-05-05T17:39:18.814Z,16.59
2023-05-05T17:42:04.586Z,16.52
2023-05-05T17:44:50.144Z,16.47
2023-05-05T17:47:36.279Z,16.41
2023-05-05T17:50:21.933Z,15.41
2023-05-05T17:53:07.304Z,16.39
2023-05-05T17:55:52.810Z,15.47
2023-05-05T17:58:38.410Z,15.35
2023-05-05T18:01:25.737Z,16.32
2023-05-05T18:04:11.659Z,15.41
2023-05-05T18:06:57.441Z,16.22
2023-05-05T18:09:43.798Z,15.88
2023-05-05T18:12:29.495Z,15.29
2023-05-05T18:15:15.877Z,16.25
2023-05-05T18:18:01.582Z,16.24
2023-05-05T18:20:48.176Z,16.00
2023-05-05T18:23:33.647Z,14.97
2023-05-05T18:26:22.786Z,15.01
2023-05-05T18:29:08.822Z,14.91
2023-05-05T18:31:54.919Z,15.71
2023-05-05T18:34:40.221Z,15.72
2023-05-05T18:37:26.115Z,15.47
2023-05-05T18:40:12.186Z,15.11
2023-05-05T18:42:57.816Z,15.66
2023-05-05T18:45:43.147Z,15.38
2023-05-05T18:48:29.804Z,15.29
2023-05-05T18:51:15.026Z,15.17
2023-05-05T18:54:03.370Z,15.23
2023-05-05T18:56:48.599Z,14.20
2023-05-05T18:59:34.177Z,15.10
2023-05-05T19:02:19.687Z,14.53
2023-05-05T19:05:06.943Z,14.25
2023-05-05T19:07:52.000Z,13.91
2023-05-05T19:10:37.858Z,14.68
2023-05-05T19:13:23.536Z,14.82
2023-05-05T19:16:10.368Z,14.79
2023-05-05T19:18:58.730Z,14.68
2023-05-05T19:21:44.512Z,14.59
2023-05-05T19:24:30.051Z,13.59
2023-05-05T19:27:16.853Z,13.54
2023-05-05T19:30:06.933Z,13.20
2023-05-05T19:32:52.321Z,14.33
2023-05-05T19:35:37.648Z,14.02
2023-05-05T19:38:22.983Z,14.29
2023-05-05T19:41:08.490Z,13.15
2023-05-05T19:43:53.946Z,13.69
2023-05-05T19:46:39.527Z,12.88
2023-05-05T19:49:27.037Z,14.21
2023-05-05T19:52:12.668Z,13.07
2023-05-05T19:54:58.953Z,14.16
2023-05-05T19:57:44.771Z,14.10
2023-05-05T20:00:30.133Z,13.95
2023-05-05T20:03:15.736Z,13.87
2023-05-05T20:06:01.440Z,13.87
2023-05-05T20:08:46.786Z,13.79
2023-05-05T20:11:32.588Z,13.03
2023-05-05T20:14:18.053Z,12.63
2023-05-05T20:17:03.559Z,13.80
2023-05-05T20:19:49.673Z,13.87
2023-05-05T20:22:35.038Z,13.87
2023-05-05T20:25:20.314Z,12.88
2023-05-05T20:28:05.722Z,13.17
2023-05-05T20:30:51.077Z,13.96
2023-05-05T20:33:36.718Z,13.52
2023-05-05T20:36:22.855Z,13.35
2023-05-05T20:39:09.533Z,14.08
2023-05-05T20:41:54.751Z,13.51
2023-05-05T20:44:40.089Z,13.41
2023-05-05T20:47:26.826Z,13.86
2023-05-05T20:50:12.298Z,14.04
2023-05-05T20:52:58.816Z,13.09
2023-05-05T20:55:45.906Z,14.05
2023-05-05T20:58:31.259Z,14.01
2023-05-05T21:01:16.936Z,13.69
2023-05-05T21:04:02.320Z,12.76
2023-05-05T21:06:47.620Z,12.74
2023-05-05T21:09:35.294Z,13.62
2023-05-05T21:12:20.608Z,13.88
2023-05-05T21:15:07.246Z,12.72
2023-05-05T21:17:53.281Z,13.23
2023-05-05T21:20:38.652Z,13.87
2023-05-05T21:23:24.225Z,12.52
2023-05-05T21:26:09.614Z,13.85
2023-05-05T21:28:55.063Z,13.80
2023-05-05T21:31:40.578Z,13.74
2023-05-05T21:34:26.098Z,13.69
2023-05-05T21:37:12.169Z,13.66
2023-05-05T21:39:57.801Z,12.46
2023-05-05T21:42:43.752Z,12.75
2023-05-05T21:45:29.018Z,12.42
2023-05-05T21:48:14.451Z,13.56
2023-05-05T21:51:00.111Z,12.57
2023-05-05T21:53:45.301Z,13.47
2023-05-05T21:56:30.598Z,13.47
2023-05-05T21:59:17.148Z,12.17
2023-05-05T22:02:03.044Z,13.21
2023-05-05T22:04:51.169Z,13.33
2023-05-05T22:07:36.565Z,13.29
2023-05-05T22:10:22.031Z,12.35
2023-05-05T22:13:10.612Z,11.96
2023-05-05T22:15:56.315Z,12.67
2023-05-05T22:18:41.584Z,11.83
2023-05-05T22:21:27.599Z,13.11
2023-05-05T22:24:13.284Z,11.78
2023-05-05T22:26:58.627Z,12.96
2023-05-05T22:29:43.950Z,13.03
2023-05-05T22:32:29.672Z,11.74
2023-05-05T22:35:15.312Z,12.81
2023-05-05T22:38:01.466Z,13.00
2023-05-05T22:40:47.170Z,12.73
2023-05-05T22:43:32.408Z,12.95
2023-05-05T22:46:17.997Z,12.63
2023-05-05T22:49:03.451Z,11.57
2023-05-05T22:51:48.796Z,11.85
2023-05-05T22:54:34.253Z,11.59
2023-05-05T22:57:19.612Z,11.71
2023-05-05T23:00:05.581Z,12.59
2023-05-05T23:02:51.168Z,11.22
2023-05-05T23:05:36.641Z,11.54
2023-05-05T23:08:24.011Z,12.12
2023-05-05T23:11:09.625Z,11.30
2023-05-05T23:13:54.792Z,12.31
2023-05-05T23:16:40.335Z,11.01
2023-05-05T23:19:26.300Z,11.11
2023-05-05T23:22:11.670Z,10.88
2023-05-05T23:24:57.102Z,12.07
2023-05-05T23:27:42.457Z,12.00
2023-05-05T23:30:28.050Z,10.73
2023-05-05T23:33:13.287Z,11.97
2023-05-05T23:35:58.635Z,11.61
2023-05-05T23:38:43.871Z,10.90
2023-05-05T23:41:29.383Z,11.84
2023-05-05T23:44:14.930Z,11.61
2023-05-05T23:47:00.563Z,11.76
2023-05-05T23:49:46.318Z,11.50
2023-05-05T23:52:31.983Z,10.41
2023-05-05T23:55:17.384Z,11.57
2023-05-05T23:58:02.935Z,10.45
